Time;durP1;ratioP1;P1;durP2;ratioP2;P2;SDS_P1;SDS_P2;PMS_P1;PMS_P2;Temp;Humidity;BMP_temperature;BMP_pressure;BME280_temperature;BME280_humidity;BME280_pressure;Samples;Min_cycle;Max_cycle;Signal;HPM_P1;HPM_P2
2021/09/08 00:00:13;;;;;;;18.60;16.25;;;14.80;99.90;;;;;;5117638;27;20070;-66
2021/09/08 00:02:39;;;;;;;15.98;14.43;;;14.80;99.90;;;;;;5102208;27;20058;-66
2021/09/08 00:05:07;;;;;;;21.52;14.75;;;14.70;99.90;;;;;;5117958;27;20492;-67
2021/09/08 00:07:33;;;;;;;18.02;14.93;;;14.70;99.90;;;;;;5108765;27;20049;-67
2021/09/08 00:09:58;;;;;;;14.68;13.18;;;14.70;99.90;;;;;;5096856;27;20047;-66
2021/09/08 00:12:24;;;;;;;17.10;14.35;;;14.70;99.90;;;;;;5100293;27;20081;-66
2021/09/08 00:14:49;;;;;;;15.02;13.43;;;14.70;99.90;;;;;;5110753;27;20493;-66
2021/09/08 00:17:15;;;;;;;19.58;16.58;;;14.80;99.90;;;;;;5115002;27;20043;-66
2021/09/08 00:19:41;;;;;;;19.88;15.10;;;14.70;99.90;;;;;;5116980;27;20039;-66
2021/09/08 00:22:06;;;;;;;15.90;14.20;;;14.70;99.90;;;;;;5083735;28;20050;-66
2021/09/08 00:24:32;;;;;;;15.20;12.90;;;14.70;99.90;;;;;;5114942;27;20396;-66
2021/09/08 00:26:59;;;;;;;14.45;13.05;;;14.70;99.90;;;;;;5114032;27;20039;-67
2021/09/08 00:29:25;;;;;;;18.83;12.88;;;14.70;99.90;;;;;;5116160;27;20035;-67
2021/09/08 00:31:51;;;;;;;21.98;14.93;;;14.70;99.90;;;;;;5098938;27;20047;-66
2021/09/08 00:34:16;;;;;;;15.57;13.95;;;14.70;99.90;;;;;;5093308;27;20103;-66
2021/09/08 00:36:42;;;;;;;18.35;14.27;;;14.60;99.90;;;;;;5117495;27;20150;-66
2021/09/08 00:39:07;;;;;;;20.58;13.77;;;14.60;99.90;;;;;;5114185;27;20043;-66
2021/09/08 00:41:33;;;;;;;18.17;15.95;;;14.60;99.90;;;;;;5117039;27;20042;-66
2021/09/08 00:44:12;;;;;;;16.38;14.68;;;14.60;99.90;;;;;;5115993;27;20071;-66
2021/09/08 00:46:40;;;;;;;18.85;15.02;;;14.50;99.90;;;;;;5115931;27;20461;-66
2021/09/08 00:49:06;;;;;;;19.45;14.30;;;14.60;99.90;;;;;;5097659;27;20047;-66
2021/09/08 00:51:32;;;;;;;23.88;14.38;;;14.60;99.90;;;;;;5110108;27;20382;-67
2021/09/08 00:53:59;;;;;;;16.23;14.43;;;14.60;99.90;;;;;;5116208;27;20031;-67
2021/09/08 00:56:27;;;;;;;19.35;15.55;;;14.60;99.90;;;;;;5101926;27;20508;-67
2021/09/08 00:58:53;;;;;;;18.35;14.95;;;14.50;99.90;;;;;;5099110;27;20363;-67
2021/09/08 01:01:19;;;;;;;19.08;17.08;;;14.60;99.90;;;;;;5115095;27;20050;-67
2021/09/08 01:03:46;;;;;;;18.23;14.90;;;14.60;99.90;;;;;;5094884;27;20048;-66
2021/09/08 01:06:11;;;;;;;21.38;16.70;;;14.60;99.90;;;;;;5110041;27;20039;-66
2021/09/08 01:08:37;;;;;;;19.80;17.00;;;14.60;99.90;;;;;;5097247;27;20042;-66
2021/09/08 01:11:03;;;;;;;17.73;15.85;;;14.60;99.90;;;;;;5096112;27;20384;-66
2021/09/08 01:13:29;;;;;;;17.83;15.93;;;14.60;99.90;;;;;;5096751;27;20523;-66
2021/09/08 01:16:01;;;;;;;21.42;17.38;;;14.70;99.90;;;;;;5113312;27;20472;-66
2021/09/08 01:18:30;;;;;;;19.55;16.88;;;14.70;99.90;;;;;;5117993;27;20054;-66
2021/09/08 01:20:55;;;;;;;20.10;16.92;;;14.70;99.90;;;;;;5111470;27;20051;-67
2021/09/08 01:23:21;;;;;;;23.10;17.65;;;14.70;99.90;;;;;;5116668;27;20513;-67
2021/09/08 01:25:47;;;;;;;19.67;17.63;;;14.70;99.90;;;;;;5103933;27;20035;-67
2021/09/08 01:28:12;;;;;;;18.77;16.20;;;14.60;99.90;;;;;;5095957;27;20031;-67
2021/09/08 01:30:41;;;;;;;20.23;17.83;;;14.70;99.90;;;;;;5113739;27;20622;-66
2021/09/08 01:33:09;;;;;;;21.98;17.33;;;14.70;99.90;;;;;;5098286;27;20421;-66
2021/09/08 01:35:34;;;;;;;21.48;15.88;;;14.70;99.90;;;;;;5114405;27;20081;-66
2021/09/08 01:38:00;;;;;;;22.85;17.58;;;14.70;99.90;;;;;;5097332;27;20126;-66
2021/09/08 01:40:26;;;;;;;19.17;17.33;;;14.70;99.90;;;;;;5099252;27;20632;-66
2021/09/08 01:42:51;;;;;;;20.15;16.00;;;14.60;99.90;;;;;;5117484;27;20126;-66
2021/09/08 01:45:17;;;;;;;21.20;17.67;;;14.60;99.90;;;;;;5117134;27;20031;-67
2021/09/08 01:47:44;;;;;;;19.25;17.10;;;14.60;99.90;;;;;;5094662;27;20532;-66
2021/09/08 01:50:11;;;;;;;23.58;16.33;;;14.60;99.90;;;;;;5097956;28;20155;-66
2021/09/08 01:52:37;;;;;;;20.13;16.90;;;14.50;99.90;;;;;;5098759;28;20062;-66
2021/09/08 01:55:04;;;;;;;20.88;16.35;;;14.50;99.90;;;;;;5098273;27;20075;-66
2021/09/08 01:57:30;;;;;;;20.85;17.42;;;14.50;99.90;;;;;;5116212;28;20060;-66
2021/09/08 01:59:55;;;;;;;20.67;17.92;;;14.50;99.90;;;;;;5094229;27;20047;-67
2021/09/08 02:02:21;;;;;;;31.45;19.10;;;14.40;99.90;;;;;;5111103;28;20081;-66
2021/09/08 02:04:46;;;;;;;20.42;17.15;;;14.40;99.90;;;;;;5104125;28;20044;-67
2021/09/08 02:07:12;;;;;;;19.13;17.13;;;14.40;99.90;;;;;;5110300;28;20043;-67
2021/09/08 02:09:37;;;;;;;22.20;17.25;;;14.40;99.90;;;;;;5097511;28;20041;-67
2021/09/08 02:12:03;;;;;;;21.52;18.23;;;14.40;99.90;;;;;;5114127;27;20055;-67
2021/09/08 02:14:29;;;;;;;22.98;18.02;;;14.40;99.90;;;;;;5099478;28;20046;-67
2021/09/08 02:16:55;;;;;;;20.73;17.23;;;14.50;99.90;;;;;;5109909;28;20065;-66
2021/09/08 02:19:20;;;;;;;23.35;17.33;;;14.40;99.90;;;;;;5112082;27;20051;-66
2021/09/08 02:21:46;;;;;;;20.98;18.08;;;14.30;99.90;;;;;;5117505;28;20039;-67
2021/09/08 02:24:11;;;;;;;25.58;17.55;;;14.40;99.90;;;;;;5099780;28;20074;-67
2021/09/08 02:26:37;;;;;;;18.17;16.23;;;14.40;99.90;;;;;;5104254;28;20571;-67
2021/09/08 02:29:02;;;;;;;23.70;19.27;;;14.30;99.90;;;;;;5119474;27;20038;-67
2021/09/08 02:31:28;;;;;;;23.70;17.85;;;14.30;99.90;;;;;;5121052;28;20512;-66
2021/09/08 02:33:55;;;;;;;22.60;20.15;;;14.30;99.90;;;;;;5125647;28;20039;-66
2021/09/08 02:36:23;;;;;;;23.70;19.50;;;14.30;99.90;;;;;;5102302;27;20518;-66
2021/09/08 02:38:48;;;;;;;22.42;19.13;;;14.30;99.90;;;;;;5124191;28;20069;-66
2021/09/08 02:41:14;;;;;;;20.30;18.08;;;14.30;99.90;;;;;;5119145;28;20047;-67
2021/09/08 02:43:39;;;;;;;23.85;19.70;;;14.30;99.90;;;;;;5120591;28;20030;-67
2021/09/08 02:46:06;;;;;;;22.17;18.67;;;14.40;99.90;;;;;;5114108;28;20084;-67
2021/09/08 02:48:32;;;;;;;23.52;18.15;;;14.40;99.90;;;;;;5118213;28;20384;-67
2021/09/08 02:50:59;;;;;;;20.27;17.73;;;14.40;99.90;;;;;;5121860;27;20408;-66
2021/09/08 02:53:25;;;;;;;24.08;18.63;;;14.30;99.90;;;;;;5118432;28;20036;-66
2021/09/08 02:55:54;;;;;;;22.58;18.30;;;14.40;99.90;;;;;;5121787;28;20038;-66
2021/09/08 02:58:19;;;;;;;23.23;18.42;;;14.30;99.90;;;;;;5102312;28;20118;-66
2021/09/08 03:00:45;;;;;;;20.85;18.15;;;14.40;99.90;;;;;;5120343;28;20479;-67
2021/09/08 03:03:10;;;;;;;22.55;19.42;;;14.40;99.90;;;;;;5105629;28;20404;-67
2021/09/08 03:05:36;;;;;;;20.35;17.50;;;14.40;99.90;;;;;;5128482;27;20039;-67
2021/09/08 03:08:02;;;;;;;19.88;17.88;;;14.40;99.90;;;;;;5119576;27;20119;-67
2021/09/08 03:10:28;;;;;;;20.20;17.10;;;14.40;99.90;;;;;;5122621;27;20039;-67
2021/09/08 03:12:53;;;;;;;21.17;17.48;;;14.40;99.90;;;;;;5119334;27;20130;-67
2021/09/08 03:15:20;;;;;;;21.17;18.95;;;14.40;99.90;;;;;;5125110;27;20043;-67
2021/09/08 03:17:46;;;;;;;20.90;18.77;;;14.40;99.90;;;;;;5125575;27;20137;-67
2021/09/08 03:20:12;;;;;;;22.90;19.15;;;14.40;99.90;;;;;;5119717;27;20484;-67
2021/09/08 03:22:37;;;;;;;20.95;18.60;;;14.40;99.90;;;;;;5109701;27;20043;-67
2021/09/08 03:25:04;;;;;;;24.27;18.55;;;14.50;99.90;;;;;;5117005;27;20036;-67
2021/09/08 03:27:29;;;;;;;21.20;17.58;;;14.60;99.90;;;;;;5106385;27;20047;-67
2021/09/08 03:29:55;;;;;;;22.13;18.90;;;14.60;99.90;;;;;;5117231;27;20053;-67
2021/09/08 03:32:21;;;;;;;22.75;17.80;;;14.50;99.90;;;;;;5122004;27;20430;-67
2021/09/08 03:34:46;;;;;;;23.23;18.45;;;14.60;99.90;;;;;;5105926;27;20042;-67
2021/09/08 03:37:12;;;;;;;25.40;19.02;;;14.50;99.90;;;;;;5107378;27;20046;-66
2021/09/08 03:39:37;;;;;;;19.88;17.88;;;14.60;99.90;;;;;;5115182;27;20130;-66
2021/09/08 03:42:04;;;;;;;21.35;18.63;;;14.50;99.90;;;;;;5127730;27;20904;-67
2021/09/08 03:44:29;;;;;;;23.45;18.40;;;14.50;99.90;;;;;;5099739;27;20035;-66
2021/09/08 03:46:55;;;;;;;20.67;17.60;;;14.50;99.90;;;;;;5116279;27;22102;-67
2021/09/08 03:49:21;;;;;;;19.33;17.25;;;14.50;99.90;;;;;;5115170;27;20035;-67
2021/09/08 03:51:46;;;;;;;22.25;16.98;;;14.50;99.90;;;;;;5117700;27;20159;-67
2021/09/08 03:54:12;;;;;;;24.60;16.95;;;14.40;99.90;;;;;;5110736;27;20070;-66
2021/09/08 03:56:38;;;;;;;20.80;18.70;;;14.50;99.90;;;;;;5116775;27;20055;-67
2021/09/08 03:59:03;;;;;;;21.92;18.80;;;14.40;99.90;;;;;;5123171;27;20063;-67
2021/09/08 04:01:29;;;;;;;22.33;17.67;;;14.40;99.90;;;;;;5115356;27;20070;-67
2021/09/08 04:03:54;;;;;;;20.02;17.70;;;14.40;99.90;;;;;;5126116;27;20035;-67
2021/09/08 04:06:20;;;;;;;19.33;17.35;;;14.40;99.90;;;;;;5126964;27;20047;-67
2021/09/08 04:08:46;;;;;;;20.17;17.25;;;14.40;99.90;;;;;;5121203;27;20035;-67
2021/09/08 04:11:12;;;;;;;21.50;18.27;;;14.40;99.90;;;;;;5106407;27;20114;-67
2021/09/08 04:13:37;;;;;;;21.42;17.90;;;14.40;99.90;;;;;;5108601;27;20042;-67
2021/09/08 04:16:04;;;;;;;20.40;17.55;;;14.40;99.90;;;;;;5133871;27;20058;-67
2021/09/08 04:18:29;;;;;;;19.85;17.80;;;14.30;99.90;;;;;;5125154;27;20401;-67
2021/09/08 04:20:55;;;;;;;20.65;18.42;;;14.30;99.90;;;;;;5103621;27;20039;-67
2021/09/08 04:23:21;;;;;;;19.92;17.65;;;14.30;99.90;;;;;;5106117;27;20039;-67
2021/09/08 04:25:59;;;;;;;23.73;17.35;;;14.20;99.90;;;;;;5125017;27;20039;-66
2021/09/08 04:28:25;;;;;;;18.52;16.45;;;14.20;99.90;;;;;;5123343;27;20451;-66
2021/09/08 04:30:50;;;;;;;20.30;16.58;;;14.10;99.90;;;;;;5116640;27;20063;-66
2021/09/08 04:33:16;;;;;;;18.20;16.30;;;14.10;99.90;;;;;;5109843;27;20092;-66
2021/09/08 04:35:41;;;;;;;21.30;18.58;;;14.10;99.90;;;;;;5122567;27;20480;-67
2021/09/08 04:38:07;;;;;;;20.40;17.83;;;14.00;99.90;;;;;;5124845;27;20035;-67
2021/09/08 04:40:32;;;;;;;21.90;18.88;;;13.90;99.90;;;;;;5117780;27;20473;-67
2021/09/08 04:42:58;;;;;;;21.73;17.23;;;13.90;99.90;;;;;;5115885;27;20161;-66
2021/09/08 04:45:23;;;;;;;18.33;16.38;;;13.90;99.90;;;;;;5107966;27;20038;-67
2021/09/08 04:47:49;;;;;;;21.75;17.05;;;13.80;99.90;;;;;;5126031;27;20412;-67
2021/09/08 04:50:15;;;;;;;17.67;15.80;;;13.80;99.90;;;;;;5118328;27;20127;-67
2021/09/08 04:52:40;;;;;;;20.45;17.05;;;13.80;99.90;;;;;;5126606;27;20050;-67
2021/09/08 04:55:07;;;;;;;18.98;16.38;;;13.80;99.90;;;;;;5117918;27;20047;-67
2021/09/08 04:57:33;;;;;;;21.67;18.27;;;13.80;99.90;;;;;;5118101;27;20039;-67
2021/09/08 04:59:59;;;;;;;23.05;18.90;;;13.80;99.90;;;;;;5113746;27;20087;-67
2021/09/08 05:02:24;;;;;;;19.58;17.58;;;13.80;99.90;;;;;;5117897;27;20090;-67
2021/09/08 05:04:50;;;;;;;21.50;18.67;;;13.80;99.90;;;;;;5104900;27;20035;-67
2021/09/08 05:07:16;;;;;;;23.90;18.23;;;13.80;99.90;;;;;;5104463;27;20043;-67
2021/09/08 05:09:41;;;;;;;22.20;18.23;;;13.70;99.90;;;;;;5111073;27;20047;-67
2021/09/08 05:12:07;;;;;;;21.73;17.25;;;13.70;99.90;;;;;;5105762;27;20031;-67
2021/09/08 05:14:32;;;;;;;18.70;15.85;;;13.70;99.90;;;;;;5113953;27;20039;-67
2021/09/08 05:16:58;;;;;;;16.77;14.63;;;13.70;99.90;;;;;;5096772;27;20055;-67
2021/09/08 05:19:23;;;;;;;21.80;17.95;;;13.70;99.90;;;;;;5119890;27;20057;-67
2021/09/08 05:21:49;;;;;;;21.17;17.13;;;13.70;99.90;;;;;;5116847;27;20035;-67
2021/09/08 05:24:15;;;;;;;24.23;18.50;;;13.70;99.90;;;;;;5117980;27;20122;-67
2021/09/08 05:26:40;;;;;;;23.88;19.55;;;13.70;99.90;;;;;;5118084;27;20027;-67
2021/09/08 05:29:06;;;;;;;24.50;18.48;;;13.80;99.90;;;;;;5115108;27;20032;-67
2021/09/08 05:31:32;;;;;;;20.35;18.13;;;14.00;99.90;;;;;;5114716;27;20054;-67
2021/09/08 05:33:58;;;;;;;22.70;19.10;;;14.30;99.90;;;;;;5113660;27;20035;-67
2021/09/08 05:36:23;;;;;;;22.63;18.55;;;14.50;99.90;;;;;;5113670;27;20043;-66
2021/09/08 05:38:50;;;;;;;19.10;16.80;;;14.60;99.90;;;;;;5096790;27;20091;-66
2021/09/08 05:41:16;;;;;;;18.75;16.38;;;14.90;99.90;;;;;;5102643;27;22613;-67
2021/09/08 05:43:42;;;;;;;17.83;15.77;;;15.00;99.90;;;;;;5120522;27;20031;-67
2021/09/08 05:46:07;;;;;;;18.55;14.35;;;15.50;99.90;;;;;;5118033;27;20087;-67
2021/09/08 05:48:33;;;;;;;15.25;13.18;;;16.00;99.90;;;;;;5114597;27;20381;-67
2021/09/08 05:51:00;;;;;;;19.10;14.82;;;16.20;99.90;;;;;;5109357;28;20484;-67
2021/09/08 05:53:25;;;;;;;17.08;14.63;;;16.70;99.90;;;;;;5115117;28;20503;-67
2021/09/08 05:55:53;;;;;;;21.13;13.90;;;17.10;99.90;;;;;;5115067;28;20035;-67
2021/09/08 05:58:19;;;;;;;18.17;15.02;;;17.40;99.90;;;;;;5112368;28;20380;-67
2021/09/08 06:00:44;;;;;;;14.73;13.23;;;17.80;99.90;;;;;;5109366;28;20039;-67
2021/09/08 06:03:10;;;;;;;15.10;13.50;;;18.50;99.90;;;;;;5116777;28;20038;-67
2021/09/08 06:05:36;;;;;;;16.10;12.95;;;19.40;99.90;;;;;;5101091;28;20047;-67
2021/09/08 06:08:01;;;;;;;15.63;12.57;;;20.30;99.90;;;;;;5098118;28;20031;-67
2021/09/08 06:10:27;;;;;;;13.82;12.45;;;21.20;99.90;;;;;;5097405;28;20043;-67
2021/09/08 06:12:53;;;;;;;14.00;12.60;;;22.10;99.90;;;;;;5092356;28;20134;-67
2021/09/08 06:15:20;;;;;;;14.32;12.68;;;22.50;99.90;;;;;;5117338;28;20035;-67
2021/09/08 06:17:46;;;;;;;16.63;12.68;;;23.50;99.90;;;;;;5098955;28;20050;-67
2021/09/08 06:20:12;;;;;;;15.55;12.98;;;24.60;99.90;;;;;;5100651;28;20089;-67
2021/09/08 06:22:38;;;;;;;13.02;11.80;;;25.30;99.90;;;;;;5111619;27;20077;-67
2021/09/08 06:25:05;;;;;;;15.13;12.20;;;25.80;97.40;;;;;;5112289;27;20087;-67
2021/09/08 06:27:30;;;;;;;17.90;12.77;;;26.40;96.00;;;;;;5112983;27;20036;-68
2021/09/08 06:29:57;;;;;;;14.90;13.00;;;26.40;92.30;;;;;;5110602;27;20042;-68
2021/09/08 06:32:23;;;;;;;13.85;12.55;;;26.20;89.30;;;;;;5113860;27;20097;-67
2021/09/08 06:34:49;;;;;;;15.43;13.32;;;26.20;88.20;;;;;;5094923;27;20801;-68
2021/09/08 06:37:17;;;;;;;18.40;12.00;;;26.60;87.70;;;;;;5110176;27;20036;-68
2021/09/08 06:39:43;;;;;;;15.00;13.40;;;26.90;86.20;;;;;;5114129;27;20078;-67
2021/09/08 06:42:09;;;;;;;17.23;13.23;;;26.90;85.10;;;;;;5115143;27;20181;-67
2021/09/08 06:44:35;;;;;;;13.80;11.70;;;26.90;84.00;;;;;;5116926;27;20095;-67
2021/09/08 06:47:01;;;;;;;14.55;13.05;;;27.10;81.80;;;;;;5117498;27;20481;-68
2021/09/08 06:49:26;;;;;;;18.15;12.90;;;27.00;79.30;;;;;;5102234;27;20058;-68
2021/09/08 06:51:52;;;;;;;16.50;13.68;;;26.20;80.70;;;;;;5116254;27;20571;-67
2021/09/08 06:54:18;;;;;;;14.18;12.73;;;26.00;85.90;;;;;;5115405;27;20067;-68
2021/09/08 06:56:49;;;;;;;14.45;13.02;;;26.10;85.70;;;;;;5114867;27;20173;-67
2021/09/08 06:59:14;;;;;;;15.15;12.00;;;26.20;84.00;;;;;;5096776;27;20043;-67
2021/09/08 07:01:40;;;;;;;14.65;13.27;;;26.50;83.90;;;;;;5116932;27;20046;-68
2021/09/08 07:04:06;;;;;;;14.43;13.10;;;25.00;84.80;;;;;;5115684;27;20040;-67
2021/09/08 07:06:31;;;;;;;15.80;11.95;;;24.40;92.80;;;;;;5111199;27;20042;-67
2021/09/08 07:08:57;;;;;;;15.43;12.50;;;23.40;97.60;;;;;;5118330;27;20043;-67
2021/09/08 07:11:23;;;;;;;18.75;13.07;;;22.70;99.90;;;;;;5098335;27;20078;-67
2021/09/08 07:13:48;;;;;;;15.02;13.27;;;22.00;99.90;;;;;;5101795;27;20050;-67
2021/09/08 07:16:14;;;;;;;14.45;13.05;;;21.70;99.90;;;;;;5117615;27;20031;-67
2021/09/08 07:18:40;;;;;;;14.95;13.43;;;21.20;99.90;;;;;;5117103;27;20028;-67
2021/09/08 07:21:05;;;;;;;15.35;13.75;;;20.90;99.90;;;;;;5097707;27;20039;-67
2021/09/08 07:23:31;;;;;;;16.77;13.13;;;20.60;99.90;;;;;;5116584;27;20385;-67
2021/09/08 07:25:57;;;;;;;16.02;13.57;;;20.50;99.90;;;;;;5096918;27;20039;-67
2021/09/08 07:28:23;;;;;;;15.13;13.57;;;20.30;99.90;;;;;;5118155;27;20420;-67
2021/09/08 07:30:53;;;;;;;16.90;13.48;;;20.20;99.90;;;;;;5115076;27;20039;-67
2021/09/08 07:33:22;;;;;;;15.07;13.55;;;20.10;99.90;;;;;;5115205;27;20096;-67
2021/09/08 07:35:49;;;;;;;15.60;13.93;;;20.10;99.90;;;;;;5096733;27;20044;-67
2021/09/08 07:38:16;;;;;;;21.25;14.48;;;20.10;99.90;;;;;;5098796;27;20035;-67
2021/09/08 07:40:42;;;;;;;15.30;13.43;;;20.10;99.90;;;;;;5114604;27;20035;-67
2021/09/08 07:43:08;;;;;;;16.33;14.43;;;19.90;99.90;;;;;;5115399;27;20054;-67
2021/09/08 07:45:34;;;;;;;19.25;13.95;;;19.90;99.90;;;;;;5116477;27;20035;-67
2021/09/08 07:47:59;;;;;;;23.55;14.98;;;19.90;99.90;;;;;;5099173;27;20047;-67
2021/09/08 07:50:25;;;;;;;15.38;13.45;;;20.00;99.90;;;;;;5112116;27;20394;-67
2021/09/08 07:52:50;;;;;;;15.75;12.98;;;19.90;99.90;;;;;;5096967;27;20053;-67
2021/09/08 07:55:16;;;;;;;16.25;13.23;;;19.90;99.90;;;;;;5111857;27;20055;-67
2021/09/08 07:57:42;;;;;;;15.85;13.80;;;20.00;99.90;;;;;;5115755;27;20042;-67
2021/09/08 08:00:08;;;;;;;15.07;13.57;;;20.00;99.90;;;;;;5114001;27;20039;-67
2021/09/08 08:02:46;;;;;;;14.38;12.98;;;20.00;99.90;;;;;;5114273;27;20043;-67
2021/09/08 08:05:12;;;;;;;17.95;12.57;;;20.00;99.90;;;;;;5112765;27;20039;-67
2021/09/08 08:07:38;;;;;;;16.52;12.80;;;20.00;99.90;;;;;;5110895;27;20052;-67
2021/09/08 08:10:05;;;;;;;15.07;13.68;;;20.10;99.90;;;;;;5097146;27;20040;-67
2021/09/08 08:12:30;;;;;;;16.40;12.30;;;20.30;99.90;;;;;;5115416;27;20046;-67
2021/09/08 08:14:56;;;;;;;14.40;12.00;;;20.40;99.90;;;;;;5097123;27;20392;-67
2021/09/08 08:17:22;;;;;;;17.05;12.73;;;20.50;99.90;;;;;;5117577;27;20134;-67
2021/09/08 08:19:48;;;;;;;15.75;12.52;;;20.70;99.90;;;;;;5096118;27;20130;-67
2021/09/08 08:22:17;;;;;;;15.95;12.50;;;20.90;99.90;;;;;;5112321;27;20063;-67
2021/09/08 08:24:43;;;;;;;16.95;11.50;;;21.10;99.90;;;;;;5096746;27;20179;-67
2021/09/08 08:27:09;;;;;;;14.98;11.82;;;21.30;99.90;;;;;;5117390;27;20043;-67
2021/09/08 08:29:35;;;;;;;15.05;11.77;;;21.50;99.90;;;;;;5116828;27;20031;-67
2021/09/08 08:32:00;;;;;;;14.65;10.93;;;21.70;99.90;;;;;;5096656;27;20047;-67
2021/09/08 08:34:26;;;;;;;11.88;10.35;;;22.00;99.90;;;;;;5115906;27;20114;-67
2021/09/08 08:36:52;;;;;;;13.13;11.25;;;22.30;99.90;;;;;;5098814;27;20043;-67
2021/09/08 08:39:20;;;;;;;14.15;10.98;;;22.40;99.90;;;;;;5110116;27;21287;-67
2021/09/08 08:41:45;;;;;;;14.48;11.52;;;22.80;99.90;;;;;;5115554;27;20501;-67
2021/09/08 08:44:12;;;;;;;13.02;10.35;;;22.90;99.90;;;;;;5093758;27;20064;-67
2021/09/08 08:46:38;;;;;;;15.80;11.15;;;23.00;99.90;;;;;;5111670;27;20042;-67
2021/09/08 08:49:05;;;;;;;14.07;11.30;;;23.10;99.90;;;;;;5095251;27;20066;-67
2021/09/08 08:51:31;;;;;;;16.25;10.55;;;23.30;99.90;;;;;;5096706;27;20112;-67
2021/09/08 08:53:57;;;;;;;10.25;9.25;;;23.40;99.90;;;;;;5112433;27;20035;-67
2021/09/08 08:56:23;;;;;;;14.38;9.80;;;23.60;99.90;;;;;;5095888;27;20043;-67
2021/09/08 08:58:51;;;;;;;11.40;9.43;;;23.70;99.90;;;;;;5117817;27;20054;-68
2021/09/08 09:01:18;;;;;;;10.65;9.13;;;23.90;99.90;;;;;;5111036;27;20039;-67
2021/09/08 09:04:08;;;;;;;10.85;9.77;;;23.90;99.90;;;;;;5114188;27;20043;-67
2021/09/08 09:06:39;;;;;;;13.07;10.27;;;24.10;99.90;;;;;;5116510;27;20043;-67
2021/09/08 09:09:07;;;;;;;12.00;9.63;;;24.00;99.90;;;;;;5112268;27;20031;-68
2021/09/08 09:11:34;;;;;;;12.75;8.48;;;24.20;99.90;;;;;;5094208;27;20126;-68
2021/09/08 09:14:02;;;;;;;14.95;10.10;;;24.30;99.90;;;;;;5113894;27;20707;-68
2021/09/08 09:16:28;;;;;;;15.27;8.95;;;24.50;99.90;;;;;;5094724;27;20031;-67
2021/09/08 09:18:55;;;;;;;11.55;9.60;;;24.50;99.90;;;;;;5112138;27;20381;-67
2021/09/08 09:21:24;;;;;;;13.23;8.88;;;24.60;99.90;;;;;;5112280;27;20468;-67
2021/09/08 09:24:01;;;;;;;13.02;9.30;;;24.70;99.90;;;;;;5094333;27;20077;-67
2021/09/08 09:26:30;;;;;;;12.75;9.02;;;24.60;99.90;;;;;;5095037;27;20038;-67
2021/09/08 09:29:05;;;;;;;14.38;9.75;;;24.90;99.90;;;;;;5078806;27;20358;-67
2021/09/08 09:31:31;;;;;;;11.93;7.85;;;24.90;97.50;;;;;;5115285;27;20066;-68
2021/09/08 09:33:58;;;;;;;14.48;8.70;;;24.80;98.60;;;;;;5096529;27;20063;-67
2021/09/08 09:36:27;;;;;;;12.23;9.32;;;24.70;94.80;;;;;;5112791;27;20043;-67
2021/09/08 09:38:54;;;;;;;8.75;7.78;;;24.60;97.00;;;;;;5113009;27;20049;-67
2021/09/08 09:41:26;;;;;;;8.15;7.45;;;24.70;98.90;;;;;;5116017;27;20035;-67
2021/09/08 09:43:51;;;;;;;8.88;7.03;;;24.80;96.90;;;;;;5094571;27;20043;-67
2021/09/08 09:46:18;;;;;;;9.65;8.20;;;24.90;97.30;;;;;;5110461;27;20669;-67
2021/09/08 09:48:44;;;;;;;11.25;8.77;;;25.00;97.10;;;;;;5093840;27;21207;-67
2021/09/08 09:51:13;;;;;;;9.38;8.10;;;24.80;97.30;;;;;;5113336;27;20031;-67
2021/09/08 09:53:40;;;;;;;10.63;7.85;;;24.90;97.90;;;;;;5112951;27;20089;-67
2021/09/08 09:56:06;;;;;;;13.68;8.75;;;25.00;96.50;;;;;;5108699;27;20051;-67
2021/09/08 09:58:32;;;;;;;10.10;7.88;;;24.90;96.70;;;;;;5096402;27;20058;-67
2021/09/08 10:00:57;;;;;;;13.43;7.53;;;25.10;98.90;;;;;;5096339;28;20043;-67
2021/09/08 10:03:24;;;;;;;8.73;7.35;;;25.10;98.50;;;;;;5113689;27;20047;-68
2021/09/08 10:05:49;;;;;;;9.35;8.43;;;25.30;98.60;;;;;;5097028;27;20072;-68
2021/09/08 10:08:19;;;;;;;11.05;8.70;;;25.50;99.60;;;;;;5114233;27;20058;-67
2021/09/08 10:10:47;;;;;;;17.80;7.75;;;25.40;96.40;;;;;;5094945;27;20485;-67
2021/09/08 10:13:20;;;;;;;12.70;7.78;;;25.40;97.60;;;;;;5093990;27;20051;-67
2021/09/08 10:15:48;;;;;;;10.07;7.65;;;25.20;96.50;;;;;;5096952;27;20513;-68
2021/09/08 10:18:16;;;;;;;10.10;8.05;;;25.20;97.50;;;;;;5116308;27;20040;-68
2021/09/08 10:20:45;;;;;;;10.88;8.05;;;25.20;96.80;;;;;;5099880;27;20043;-68
2021/09/08 10:23:15;;;;;;;9.82;8.82;;;25.20;97.10;;;;;;5097489;27;20468;-67
2021/09/08 10:25:48;;;;;;;10.50;7.40;;;25.30;97.10;;;;;;5102051;27;20035;-67
2021/09/08 10:28:16;;;;;;;8.23;7.43;;;25.30;97.80;;;;;;5108195;27;20047;-67
2021/09/08 10:30:43;;;;;;;9.05;7.57;;;25.60;98.70;;;;;;5099179;27;20039;-68
2021/09/08 10:33:09;;;;;;;8.70;7.90;;;25.70;98.10;;;;;;5102158;27;20512;-68
2021/09/08 10:35:40;;;;;;;11.10;8.32;;;25.70;96.90;;;;;;5099884;27;20039;-68
2021/09/08 10:38:23;;;;;;;12.75;8.70;;;25.70;95.40;;;;;;5119864;27;20486;-68
2021/09/08 10:40:51;;;;;;;10.68;8.00;;;25.70;95.50;;;;;;5089856;27;20047;-67
2021/09/08 10:43:30;;;;;;;10.75;8.05;;;25.70;96.70;;;;;;5102312;27;22107;-67
2021/09/08 10:45:56;;;;;;;9.07;8.18;;;25.60;94.10;;;;;;5121489;27;20084;-67
2021/09/08 10:48:38;;;;;;;7.85;7.07;;;25.50;94.30;;;;;;5101679;27;20039;-67
2021/09/08 10:51:33;;;;;;;12.00;9.25;;;25.70;97.20;;;;;;5098751;27;20042;-67
2021/09/08 10:54:05;;;;;;;9.60;7.50;;;25.80;95.50;;;;;;5108160;27;20045;-68
2021/09/08 10:56:45;;;;;;;9.35;6.38;;;25.80;95.90;;;;;;5101808;27;20176;-68
2021/09/08 10:59:11;;;;;;;7.57;6.57;;;25.70;92.80;;;;;;5096410;27;20122;-67
2021/09/08 11:01:37;;;;;;;11.32;5.88;;;25.70;90.90;;;;;;5116241;27;20559;-67
2021/09/08 11:04:03;;;;;;;6.47;5.88;;;25.80;90.90;;;;;;5099546;27;20043;-68
2021/09/08 11:06:44;;;;;;;8.20;6.55;;;25.80;90.40;;;;;;5112431;27;20512;-68
2021/09/08 11:09:12;;;;;;;6.65;5.95;;;25.70;92.40;;;;;;5117657;27;20138;-68
2021/09/08 11:11:56;;;;;;;9.60;6.18;;;25.70;85.90;;;;;;5113256;27;20074;-68
2021/09/08 11:14:45;;;;;;;9.85;6.75;;;25.70;87.30;;;;;;5116004;27;20080;-68
2021/09/08 11:17:25;;;;;;;9.25;6.38;;;25.80;91.50;;;;;;5098518;27;20058;-68
2021/09/08 11:20:03;;;;;;;12.43;6.00;;;26.00;90.00;;;;;;5110128;27;20058;-68
2021/09/08 11:22:30;;;;;;;8.63;5.90;;;26.00;90.10;;;;;;5099676;27;20079;-73
2021/09/08 11:25:05;;;;;;;8.10;5.57;;;26.00;86.80;;;;;;5105379;27;20714;-67
2021/09/08 11:27:31;;;;;;;11.50;6.00;;;26.00;85.10;;;;;;5085313;27;21885;-67
2021/09/08 11:30:08;;;;;;;5.97;5.43;;;25.90;80.90;;;;;;5088409;27;20067;-67
2021/09/08 11:32:53;;;;;;;7.60;5.05;;;26.00;84.20;;;;;;5098483;27;20436;-67
2021/09/08 11:35:39;;;;;;;7.20;5.23;;;25.90;82.10;;;;;;5108247;27;20043;-67
2021/09/08 11:38:10;;;;;;;7.18;5.25;;;25.80;79.50;;;;;;5105562;27;20055;-67
2021/09/08 11:40:35;;;;;;;5.22;4.72;;;25.80;83.90;;;;;;5106542;27;20037;-67
2021/09/08 11:43:01;;;;;;;5.88;4.78;;;25.80;83.20;;;;;;5105049;27;20039;-67
2021/09/08 11:45:30;;;;;;;6.75;4.55;;;25.80;82.20;;;;;;5106891;27;20039;-67
2021/09/08 11:47:57;;;;;;;6.78;5.10;;;25.90;90.00;;;;;;5099736;27;20503;-67
2021/09/08 11:50:23;;;;;;;7.40;4.22;;;25.80;80.40;;;;;;5114804;27;20076;-67
2021/09/08 11:52:56;;;;;;;5.97;4.65;;;25.80;81.10;;;;;;5092437;27;20055;-67
2021/09/08 11:55:27;;;;;;;10.13;4.50;;;25.80;82.40;;;;;;5101110;27;20046;-67
2021/09/08 11:57:53;;;;;;;6.57;4.55;;;25.90;84.20;;;;;;5104109;27;20173;-67
2021/09/08 12:00:19;;;;;;;7.82;4.32;;;26.00;82.90;;;;;;5087419;27;20035;-67
2021/09/08 12:02:45;;;;;;;6.28;4.75;;;26.20;87.50;;;;;;5105508;27;20156;-67
2021/09/08 12:05:21;;;;;;;6.22;4.63;;;26.20;80.90;;;;;;5104850;27;20035;-67
2021/09/08 12:07:47;;;;;;;7.78;5.28;;;26.10;81.20;;;;;;5107186;27;20515;-67
2021/09/08 12:10:12;;;;;;;7.88;5.32;;;26.10;79.60;;;;;;5104814;27;20043;-67
2021/09/08 12:12:38;;;;;;;8.00;4.95;;;26.00;75.70;;;;;;5085935;27;20055;-67
2021/09/08 12:15:04;;;;;;;10.00;4.50;;;26.00;84.10;;;;;;5103927;27;20077;-67
2021/09/08 12:17:31;;;;;;;8.50;4.63;;;26.10;86.60;;;;;;5087281;27;20046;-67
2021/09/08 12:20:03;;;;;;;8.27;5.05;;;26.20;84.50;;;;;;5103969;27;20337;-67
2021/09/08 12:22:34;;;;;;;5.40;4.75;;;26.30;78.70;;;;;;5088291;27;20053;-67
2021/09/08 12:25:16;;;;;;;6.03;4.53;;;26.20;78.80;;;;;;5103629;27;20179;-67
2021/09/08 12:27:46;;;;;;;5.82;5.22;;;26.20;80.10;;;;;;5085888;27;20097;-67
2021/09/08 12:30:15;;;;;;;11.75;4.68;;;26.30;82.00;;;;;;5085507;27;20047;-67